Hilham, TN (38568)

9:59 PM CST on January 19, 2017 (GMT -0600)
On the Square | | Change Station

Elev 574 ft 36.55 °N, 85.50 °W | Updated 7 seconds ago

Rain
Rain
57.7 °F
Feels Like 57.7 °F
N
0.0
Wind Variable Wind from SSE
Gusts 5.0 mph

Today
High -- | Low -- °F
--% Chance of Precip.
Yesterday
High -- | Low -- °F
Precip. -- in
Pressure 29.78 in
Visibility 7.0 miles
Clouds Few 4400 ft
Scattered Clouds 7500 ft
Overcast 9000 ft
Dew Point 57 °F
Humidity 98%
Rainfall 0.76 in
Snow Depth Not available.
6:51 AM 4:54 PM
Waning Gibbous, 48% visible
METAR KCSV 200353Z AUTO 16008KT 7SM -RA FEW044 SCT075 OVC090 11/10 A2980 RMK AO2 SLP085 P0004 T01060100
Pressure 29.78 in
Visibility 7.0 miles
Clouds Few 4400 ft
Scattered Clouds 7500 ft
Overcast 9000 ft
Dew Point 57 °F
Humidity 98%
Rainfall 0.76 in
Snow Depth Not available.
6:51 AM 4:54 PM
Waning Gibbous, 48% visible
METAR KCSV 200353Z AUTO 16008KT 7SM -RA FEW044 SCT075 OVC090 11/10 A2980 RMK AO2 SLP085 P0004 T01060100

Get Your Daily Forecast Email!

Thanks for signing up!

Be on the lookout for a verification email in your inbox.

You'll start receiving the daily forecast at 8 AM.

×

10-Day Weather Forecast

Almanac

Astronomy

Jan. 19, 2017 Rise Set
Actual Time
Civil Twilight
Nautical Twilight
Astronomical Twilight
Moon
Length of Visible Light
Length of Day
Tomorrow will be .
, % of the Moon is Illuminated

Today's Extremes

State Highs State Lows

Community

WunderPhotos

Upload Photos

1,962,540 photos uploaded!

WunderBlog® & News

Nearby

Air Quality

  Air Quality AQ Index Pollutant
Not available.

Snow Depth

Station Depth Elevation

Earthquake Activity

City Distance Mag. Time & Date
Minimum magnitude displayed is 2.5.

Coastal Water Temperatures

Place Temperature

Stations

Nearby Weather Stations

Station Location Temp. Windchill Dew Point Humidity Wind Precip. Elev Updated Type
                   

Watches & Warnings

There are currently no watches in effect.